Latest Weather Observations for Esperance Harbour

IDW60801

Issued at 4:03 am WST Monday 25 July 2016 (issued every 30 minutes, with the page automatically refreshed every 10 minutes)

About weather observations | Map of weather stations | Latest weather observations for WA | Other Formats
Station Details ID: 109504 Name: ESPERANCE NTC AWS Lat: -33.87 Lon: 121.90 Height: 0.0 m
Data from the previous 72 hours. | See also: Recent months for locations in Western Australia
Date/Time
WST
Temp
°C
App
Temp
°C
Dew
Point
°C
Rel
Hum
%
Delta-T
°C
Wind Press
QNH
hPa
Press
MSL
hPa
Rain since
9am
mm
Dir  Spd
km/h
Gust
km/h
Spd
kts
Gust
kts
25/04:00am 9.3 - - - - - - - - - 1022.9 1022.8 -
25/03:30am 9.4 - - - - - - - - - 1023.1 1023.0 -
25/03:00am 9.4 - - - - - - - - - 1023.0 1022.9 -
25/02:30am 9.4 - - - - - - - - - 1023.2 1023.1 -
25/02:00am 9.5 - - - - - - - - - 1023.3 1023.2 -
25/01:30am 9.9 - - - - - - - - - 1023.3 1023.2 -
25/01:00am 10.4 - - - - - - - - - 1023.3 1023.2 -
25/12:30am 10.6 - - - - - - - - - 1023.6 1023.5 -
25/12:00am 10.7 - - - - - - - - - 1023.9 1023.8 -
 
Date/Time
WST
Temp
°C
App
Temp
°C
Dew
Point
°C
Rel
Hum
%
Delta-T
°C
Wind Press
QNH
hPa
Press
MSL
hPa
Rain since
9am
mm
Dir  Spd
km/h
Gust
km/h
Spd
kts
Gust
kts
24/11:30pm 11.0 - - - - - - - - - 1024.0 1023.9 -
24/11:00pm 11.4 - - - - - - - - - 1024.1 1024.0 -
24/10:30pm 11.8 - - - - - - - - - 1024.1 1024.0 -
24/10:00pm 11.8 - - - - - - - - - 1024.0 1023.9 -
24/09:30pm 11.7 - - - - - - - - - 1024.2 1024.1 -
24/09:00pm 11.6 - - - - - - - - - 1024.1 1024.0 -
24/08:30pm 11.6 - - - - - - - - - 1024.1 1024.0 -
24/08:00pm 11.6 - - - - - - - - - 1024.2 1024.1 -
24/07:30pm 11.5 - - - - - - - - - 1024.2 1024.1 -
24/07:00pm 11.4 - - - - - - - - - 1024.1 1024.0 -
24/06:30pm 11.4 - - - - - - - - - 1024.0 1023.9 -
24/06:00pm 11.5 - - - - - - - - - 1023.9 1023.8 -
24/05:30pm 11.6 - - - - - - - - - 1023.6 1023.5 -
24/05:00pm 11.8 - - - - - - - - - 1023.5 1023.4 -
24/04:30pm 11.7 - - - - - - - - - 1023.4 1023.3 -
24/04:00pm 11.9 - - - - - - - - - 1023.4 1023.3 -
24/03:30pm 11.8 - - - - - - - - - 1023.4 1023.3 -
24/03:00pm 11.9 - - - - - - - - - 1023.4 1023.3 -
24/02:30pm 12.8 - - - - - - - - - 1023.2 1023.1 -
24/02:00pm 12.0 - - - - - - - - - 1023.3 1023.2 -
24/01:30pm 12.9 - - - - - - - - - 1023.4 1023.3 -
24/01:00pm 12.6 - - - - - - - - - 1023.7 1023.6 -
24/12:30pm 13.1 - - - - - - - - - 1024.1 1024.0 -
24/12:00pm 13.2 - - - - - - - - - 1024.2 1024.1 -
24/11:30am 13.3 - - - - - - - - - 1024.6 1024.5 -
24/11:00am 13.2 - - - - - - - - - 1024.9 1024.8 -
24/10:30am 13.1 - - - - - - - - - 1024.9 1024.8 -
24/10:00am 12.9 - - - - - - - - - 1024.8 1024.7 -
24/09:30am 12.8 - - - - - - - - - 1024.8 1024.7 -
24/09:00am 12.6 - - - - - - - - - 1024.6 1024.5 -
24/08:30am 12.2 - - - - - - - - - 1024.5 1024.4 -
24/08:00am 11.9 - - - - - - - - - 1024.3 1024.2 -
24/07:30am 12.2 - - - - - - - - - 1023.9 1023.8 -
24/07:00am 11.5 - - - - - - - - - 1023.6 1023.5 -
24/06:30am 12.2 - - - - - - - - - 1023.1 1023.0 -
24/06:00am 12.1 - - - - - - - - - 1022.6 1022.5 -
24/05:30am 11.7 - - - - - - - - - 1022.4 1022.3 -
24/05:00am 11.8 - - - - - - - - - 1022.2 1022.1 -
24/04:30am 11.4 - - - - - - - - - 1022.1 1022.0 -
24/04:00am 11.4 - - - - - - - - - 1022.1 1022.0 -
24/03:30am 11.6 - - - - - - - - - 1021.9 1021.8 -
24/03:00am 11.9 - - - - - - - - - 1021.8 1021.7 -
24/02:30am 11.5 - - - - - - - - - 1021.7 1021.6 -
24/02:00am 11.2 - - - - - - - - - 1021.8 1021.7 -
24/01:30am 11.2 - - - - - - - - - 1021.5 1021.4 -
24/01:00am 11.2 - - - - - - - - - 1021.3 1021.2 -
24/12:30am 11.5 - - - - - - - - - 1021.2 1021.1 -
24/12:00am 11.3 - - - - - - - - - 1021.2 1021.1 -
 
Date/Time
WST
Temp
°C
App
Temp
°C
Dew
Point
°C
Rel
Hum
%
Delta-T
°C
Wind Press
QNH
hPa
Press
MSL
hPa
Rain since
9am
mm
Dir  Spd
km/h
Gust
km/h
Spd
kts
Gust
kts
23/11:30pm 10.7 - - - - - - - - - 1021.4 1021.3 -
23/11:00pm 10.9 - - - - - - - - - 1021.4 1021.3 -
23/10:30pm 11.3 - - - - - - - - - 1021.2 1021.1 -
23/10:00pm 11.6 - - - - - - - - - 1021.1 1021.0 -
23/09:30pm 11.4 - - - - - - - - - 1020.9 1020.8 -
23/09:00pm 10.9 - - - - - - - - - 1020.7 1020.7 -
23/08:30pm 11.6 - - - - - - - - - 1020.3 1020.3 -
23/08:00pm 11.3 - - - - - - - - - 1019.9 1019.9 -
23/07:30pm 11.4 - - - - - - - - - 1019.9 1019.9 -
23/07:00pm 11.3 - - - - - - - - - 1019.7 1019.7 -
23/06:30pm 11.3 - - - - - - - - - 1019.1 1019.1 -
23/06:00pm 11.1 - - - - - - - - - 1018.9 1018.9 -
23/05:30pm 12.1 - - - - - - - - - 1018.3 1018.3 -
23/05:00pm 12.1 - - - - - - - - - 1018.0 1018.0 -
23/04:30pm 12.4 - - - - - - - - - 1017.4 1017.4 -
23/04:00pm 12.1 - - - - - - - - - 1017.1 1017.1 -
23/03:30pm 11.6 - - - - - - - - - 1016.7 1016.7 -
23/03:00pm 11.4 - - - - - - - - - 1016.4 1016.4 -
23/02:30pm 11.4 - - - - - - - - - 1016.3 1016.3 -
23/02:00pm 11.2 - - - - - - - - - 1016.2 1016.2 -
23/01:30pm 14.5 - - - - - - - - - 1015.1 1015.1 -
23/01:00pm 14.3 - - - - - - - - - 1015.4 1015.4 -
23/12:30pm 14.3 - - - - - - - - - 1015.9 1015.9 -
23/12:00pm 13.5 - - - - - - - - - 1016.4 1016.4 -
23/11:30am 12.9 - - - - - - - - - 1017.0 1017.0 -
23/11:00am 12.3 - - - - - - - - - 1017.7 1017.7 -
23/10:30am 11.7 - - - - - - - - - 1018.2 1018.2 -
23/10:00am 10.9 - - - - - - - - - 1018.5 1018.5 -
23/09:30am 10.0 - - - - - - - - - 1018.9 1018.9 -
23/09:00am 8.8 - - - - - - - - - 1019.2 1019.2 -
23/08:30am 7.6 - - - - - - - - - 1019.5 1019.5 -
23/08:00am 6.7 - - - - - - - - - 1019.5 1019.5 -
23/07:30am 5.9 - - - - - - - - - 1019.4 1019.4 -
23/07:00am 6.0 - - - - - - - - - 1019.6 1019.6 -
23/06:30am 6.4 - - - - - - - - - 1019.8 1019.8 -
23/06:00am 6.6 - - - - - - - - - 1019.7 1019.7 -
23/05:30am 6.5 - - - - - - - - - 1019.7 1019.7 -
23/05:00am 6.4 - - - - - - - - - 1019.9 1019.9 -
23/04:30am 6.7 - - - - - - - - - 1020.0 1020.0 -
23/04:00am 7.3 - - - - - - - - - 1020.0 1020.0 -
23/03:30am 7.7 - - - - - - - - - 1020.3 1020.3 -
23/03:00am 7.6 - - - - - - - - - 1020.4 1020.4 -
23/02:30am 8.0 - - - - - - - - - 1020.4 1020.4 -
23/02:00am 8.5 - - - - - - - - - 1020.4 1020.4 -
23/01:30am 8.6 - - - - - - - - - 1020.5 1020.5 -
23/01:00am 8.6 - - - - - - - - - 1020.6 1020.6 -
23/12:30am 8.8 - - - - - - - - - 1020.9 1020.8 -
23/12:00am 8.6 - - - - - - - - - 1021.1 1021.0 -
 
Date/Time
WST
Temp
°C
App
Temp
°C
Dew
Point
°C
Rel
Hum
%
Delta-T
°C
Wind Press
QNH
hPa
Press
MSL
hPa
Rain since
9am
mm
Dir  Spd
km/h
Gust
km/h
Spd
kts
Gust
kts
22/11:30pm 8.9 - - - - - - - - - 1021.4 1021.3 -
22/11:00pm 9.3 - - - - - - - - - 1021.8 1021.7 -
22/10:30pm 9.3 - - - - - - - - - 1022.0 1021.9 -
22/10:00pm 9.8 - - - - - - - - - 1022.0 1021.9 -
22/09:30pm 10.1 - - - - - - - - - 1022.0 1021.9 -
22/09:00pm 10.6 - - - - - - - - - 1022.1 1022.0 -
22/08:30pm 11.8 - - - - - - - - - 1021.9 1021.8 -
22/08:00pm 11.9 - - - - - - - - - 1022.0 1021.9 -
22/07:30pm 12.0 - - - - - - - - - 1021.7 1021.6 -
22/07:00pm 12.0 - - - - - - - - - 1021.5 1021.4 -
22/06:30pm 11.8 - - - - - - - - - 1021.4 1021.3 -
22/06:00pm 11.8 - - - - - - - - - 1021.2 1021.1 -
22/05:30pm 11.4 - - - - - - - - - 1021.0 1020.9 -
22/05:00pm 11.7 - - - - - - - - - 1020.9 1020.8 -
22/04:30pm 12.0 - - - - - - - - - 1020.4 1020.4 -
22/04:00pm 12.2 - - - - - - - - - 1020.2 1020.2 -
22/03:30pm 12.3 - - - - - - - - - 1020.1 1020.1 -
22/03:00pm 11.2 - - - - - - - - - 1020.0 1020.0 -
22/02:30pm 12.1 - - - - - - - - - 1019.6 1019.6 -
22/02:00pm 12.7 - - - - - - - - - 1019.3 1019.3 -
22/01:30pm 13.1 - - - - - - - - - 1019.1 1019.1 -
22/01:00pm 12.7 - - - - - - - - - 1019.0 1019.0 -
22/12:30pm 12.3 - - - - - - - - - 1018.8 1018.8 -
22/12:00pm 13.4 - - - - - - - - - 1018.7 1018.7 -
22/11:30am 12.4 - - - - - - - - - 1018.8 1018.8 -
22/11:00am 12.2 - - - - - - - - - 1018.7 1018.7 -
22/10:30am 12.5 - - - - - - - - - 1018.4 1018.4 -
22/10:00am 12.0 - - - - - - - - - 1018.0 1018.0 -
22/09:30am 10.4 - - - - - - - - - 1017.4 1017.4 -
22/09:00am 12.6 - - - - - - - - - 1016.7 1016.7 -
22/08:30am 12.0 - - - - - - - - - 1016.0 1016.0 -
22/08:00am 11.5 - - - - - - - - - 1015.5 1015.5 -
22/07:30am 11.3 - - - - - - - - - 1014.9 1014.9 -
22/07:00am 11.3 - - - - - - - - - 1014.2 1014.2 -
22/06:30am 11.5 - - - - - - - - - 1013.7 1013.7 -
22/06:00am 11.4 - - - - - - - - - 1013.0 1013.0 -
22/05:30am 11.3 - - - - - - - - - 1012.7 1012.7 -
22/05:00am 10.8 - - - - - - - - - 1012.0 1012.0 -
22/04:30am 10.0 - - - - - - - - - 1011.7 1011.7 -

Other Formats:

Comma delimited format used in spreadsheet applications
http://www.bom.gov.au/fwo/IDW60801/IDW60801.95648.axf

JavaScript Object Notation format (JSON) in row-major order
http://www.bom.gov.au/fwo/IDW60801/IDW60801.95648.json